sensor_id;sensor_type;location;lat;lon;timestamp;P1;durP1;ratioP1;P2;durP2;ratioP2
20725;SDS011;10524;48.132;8.518;2022-07-10T00:01:55;6.20;;;3.80;;
20725;SDS011;10524;48.132;8.518;2022-07-10T00:04:21;6.22;;;3.70;;
20725;SDS011;10524;48.132;8.518;2022-07-10T00:06:47;4.05;;;3.58;;
20725;SDS011;10524;48.132;8.518;2022-07-10T00:09:13;5.47;;;3.72;;
20725;SDS011;10524;48.132;8.518;2022-07-10T00:11:39;7.43;;;3.90;;
20725;SDS011;10524;48.132;8.518;2022-07-10T00:14:05;3.90;;;3.45;;
20725;SDS011;10524;48.132;8.518;2022-07-10T00:16:31;5.05;;;3.75;;
20725;SDS011;10524;48.132;8.518;2022-07-10T00:18:57;4.78;;;3.35;;
20725;SDS011;10524;48.132;8.518;2022-07-10T00:21:22;6.57;;;4.15;;
20725;SDS011;10524;48.132;8.518;2022-07-10T00:23:48;4.13;;;3.70;;
20725;SDS011;10524;48.132;8.518;2022-07-10T00:26:13;5.03;;;3.97;;
20725;SDS011;10524;48.132;8.518;2022-07-10T00:28:39;4.57;;;3.60;;
20725;SDS011;10524;48.132;8.518;2022-07-10T00:31:05;5.10;;;3.97;;
20725;SDS011;10524;48.132;8.518;2022-07-10T00:33:30;7.03;;;3.97;;
20725;SDS011;10524;48.132;8.518;2022-07-10T00:35:57;4.60;;;4.20;;
20725;SDS011;10524;48.132;8.518;2022-07-10T00:38:23;5.00;;;4.00;;
20725;SDS011;10524;48.132;8.518;2022-07-10T00:40:49;4.93;;;4.30;;
20725;SDS011;10524;48.132;8.518;2022-07-10T00:43:15;5.18;;;4.10;;
20725;SDS011;10524;48.132;8.518;2022-07-10T00:45:40;4.75;;;4.10;;
20725;SDS011;10524;48.132;8.518;2022-07-10T00:48:06;4.97;;;4.47;;
20725;SDS011;10524;48.132;8.518;2022-07-10T00:50:32;5.32;;;4.57;;
20725;SDS011;10524;48.132;8.518;2022-07-10T00:52:59;5.00;;;4.50;;
20725;SDS011;10524;48.132;8.518;2022-07-10T00:55:25;6.25;;;5.00;;
20725;SDS011;10524;48.132;8.518;2022-07-10T00:57:51;4.90;;;4.50;;
20725;SDS011;10524;48.132;8.518;2022-07-10T01:00:17;4.78;;;4.35;;
20725;SDS011;10524;48.132;8.518;2022-07-10T01:02:43;5.53;;;5.03;;
20725;SDS011;10524;48.132;8.518;2022-07-10T01:05:10;5.78;;;4.90;;
20725;SDS011;10524;48.132;8.518;2022-07-10T01:07:36;5.70;;;4.75;;
20725;SDS011;10524;48.132;8.518;2022-07-10T01:10:02;7.28;;;4.88;;
20725;SDS011;10524;48.132;8.518;2022-07-10T01:12:28;5.20;;;4.68;;
20725;SDS011;10524;48.132;8.518;2022-07-10T01:14:54;5.40;;;4.90;;
20725;SDS011;10524;48.132;8.518;2022-07-10T01:17:20;7.13;;;5.07;;
20725;SDS011;10524;48.132;8.518;2022-07-10T01:19:46;5.00;;;4.60;;
20725;SDS011;10524;48.132;8.518;2022-07-10T01:22:11;5.15;;;4.65;;
20725;SDS011;10524;48.132;8.518;2022-07-10T01:24:37;4.97;;;4.40;;
20725;SDS011;10524;48.132;8.518;2022-07-10T01:27:03;5.82;;;4.18;;
20725;SDS011;10524;48.132;8.518;2022-07-10T01:29:29;5.10;;;4.60;;
20725;SDS011;10524;48.132;8.518;2022-07-10T01:31:55;5.03;;;4.35;;
20725;SDS011;10524;48.132;8.518;2022-07-10T01:34:21;5.55;;;4.55;;
20725;SDS011;10524;48.132;8.518;2022-07-10T01:36:47;5.85;;;4.88;;
20725;SDS011;10524;48.132;8.518;2022-07-10T01:39:13;6.47;;;4.90;;
20725;SDS011;10524;48.132;8.518;2022-07-10T01:41:38;5.07;;;4.60;;
20725;SDS011;10524;48.132;8.518;2022-07-10T01:44:04;5.35;;;4.85;;
20725;SDS011;10524;48.132;8.518;2022-07-10T01:46:30;7.07;;;5.13;;
20725;SDS011;10524;48.132;8.518;2022-07-10T01:48:56;5.72;;;4.93;;
20725;SDS011;10524;48.132;8.518;2022-07-10T01:51:22;5.32;;;4.55;;
20725;SDS011;10524;48.132;8.518;2022-07-10T01:53:47;5.32;;;4.82;;
20725;SDS011;10524;48.132;8.518;2022-07-10T01:56:13;8.25;;;6.03;;
20725;SDS011;10524;48.132;8.518;2022-07-10T01:58:40;8.15;;;5.80;;
20725;SDS011;10524;48.132;8.518;2022-07-10T02:01:06;6.40;;;5.75;;
20725;SDS011;10524;48.132;8.518;2022-07-10T02:03:33;6.47;;;5.88;;
20725;SDS011;10524;48.132;8.518;2022-07-10T02:06:17;7.72;;;6.40;;
20725;SDS011;10524;48.132;8.518;2022-07-10T02:08:43;6.45;;;5.85;;
20725;SDS011;10524;48.132;8.518;2022-07-10T02:11:09;7.63;;;6.75;;
20725;SDS011;10524;48.132;8.518;2022-07-10T02:13:35;6.70;;;6.10;;
20725;SDS011;10524;48.132;8.518;2022-07-10T02:16:01;7.13;;;6.43;;
20725;SDS011;10524;48.132;8.518;2022-07-10T02:18:26;6.38;;;5.75;;
20725;SDS011;10524;48.132;8.518;2022-07-10T02:20:52;5.47;;;4.97;;
20725;SDS011;10524;48.132;8.518;2022-07-10T02:23:18;7.25;;;5.88;;
20725;SDS011;10524;48.132;8.518;2022-07-10T02:25:47;6.22;;;5.10;;
20725;SDS011;10524;48.132;8.518;2022-07-10T02:28:13;6.05;;;5.50;;
20725;SDS011;10524;48.132;8.518;2022-07-10T02:30:38;5.93;;;5.28;;
20725;SDS011;10524;48.132;8.518;2022-07-10T02:33:04;6.10;;;5.50;;
20725;SDS011;10524;48.132;8.518;2022-07-10T02:35:29;5.82;;;5.20;;
20725;SDS011;10524;48.132;8.518;2022-07-10T02:37:55;6.55;;;5.90;;
20725;SDS011;10524;48.132;8.518;2022-07-10T02:40:21;6.97;;;6.28;;
20725;SDS011;10524;48.132;8.518;2022-07-10T02:42:47;6.13;;;5.53;;
20725;SDS011;10524;48.132;8.518;2022-07-10T02:45:12;6.05;;;5.50;;
20725;SDS011;10524;48.132;8.518;2022-07-10T02:47:38;5.95;;;5.43;;
20725;SDS011;10524;48.132;8.518;2022-07-10T02:50:04;7.07;;;6.00;;
20725;SDS011;10524;48.132;8.518;2022-07-10T02:52:30;6.57;;;5.97;;
20725;SDS011;10524;48.132;8.518;2022-07-10T02:54:56;6.50;;;5.90;;
20725;SDS011;10524;48.132;8.518;2022-07-10T02:57:22;6.93;;;6.32;;
20725;SDS011;10524;48.132;8.518;2022-07-10T02:59:48;7.05;;;6.20;;
20725;SDS011;10524;48.132;8.518;2022-07-10T03:02:13;7.65;;;6.80;;
20725;SDS011;10524;48.132;8.518;2022-07-10T03:04:40;7.40;;;6.70;;
20725;SDS011;10524;48.132;8.518;2022-07-10T03:07:05;7.35;;;6.60;;
20725;SDS011;10524;48.132;8.518;2022-07-10T03:09:31;8.73;;;6.82;;
20725;SDS011;10524;48.132;8.518;2022-07-10T03:11:57;9.00;;;7.57;;
20725;SDS011;10524;48.132;8.518;2022-07-10T03:14:22;6.90;;;6.18;;
20725;SDS011;10524;48.132;8.518;2022-07-10T03:16:48;8.48;;;6.75;;
20725;SDS011;10524;48.132;8.518;2022-07-10T03:19:13;7.38;;;6.68;;
20725;SDS011;10524;48.132;8.518;2022-07-10T03:21:39;7.68;;;6.97;;
20725;SDS011;10524;48.132;8.518;2022-07-10T03:24:05;9.25;;;7.22;;
20725;SDS011;10524;48.132;8.518;2022-07-10T03:26:31;8.68;;;7.72;;
20725;SDS011;10524;48.132;8.518;2022-07-10T03:28:56;8.35;;;7.40;;
20725;SDS011;10524;48.132;8.518;2022-07-10T03:31:22;9.52;;;7.07;;
20725;SDS011;10524;48.132;8.518;2022-07-10T03:33:48;8.25;;;7.45;;
20725;SDS011;10524;48.132;8.518;2022-07-10T03:36:14;8.30;;;7.45;;
20725;SDS011;10524;48.132;8.518;2022-07-10T03:38:40;7.30;;;6.60;;
20725;SDS011;10524;48.132;8.518;2022-07-10T03:41:05;6.78;;;6.15;;
20725;SDS011;10524;48.132;8.518;2022-07-10T03:43:31;7.32;;;6.50;;
20725;SDS011;10524;48.132;8.518;2022-07-10T03:45:57;7.80;;;7.10;;
20725;SDS011;10524;48.132;8.518;2022-07-10T03:48:23;7.63;;;6.65;;
20725;SDS011;10524;48.132;8.518;2022-07-10T03:50:49;6.93;;;6.25;;
20725;SDS011;10524;48.132;8.518;2022-07-10T03:53:16;8.57;;;7.68;;
20725;SDS011;10524;48.132;8.518;2022-07-10T03:55:42;7.80;;;7.05;;
20725;SDS011;10524;48.132;8.518;2022-07-10T03:58:07;7.55;;;6.85;;
20725;SDS011;10524;48.132;8.518;2022-07-10T04:00:33;9.23;;;7.70;;
20725;SDS011;10524;48.132;8.518;2022-07-10T04:03:03;9.60;;;8.60;;
20725;SDS011;10524;48.132;8.518;2022-07-10T04:05:30;7.80;;;7.00;;
20725;SDS011;10524;48.132;8.518;2022-07-10T04:07:56;7.07;;;6.38;;
20725;SDS011;10524;48.132;8.518;2022-07-10T04:10:23;6.88;;;6.10;;
20725;SDS011;10524;48.132;8.518;2022-07-10T04:12:49;7.38;;;6.47;;
20725;SDS011;10524;48.132;8.518;2022-07-10T04:15:15;6.70;;;6.13;;
20725;SDS011;10524;48.132;8.518;2022-07-10T04:17:41;6.35;;;5.75;;
20725;SDS011;10524;48.132;8.518;2022-07-10T04:20:07;6.53;;;5.93;;
20725;SDS011;10524;48.132;8.518;2022-07-10T04:22:33;5.38;;;4.93;;
20725;SDS011;10524;48.132;8.518;2022-07-10T04:24:59;4.70;;;4.30;;
20725;SDS011;10524;48.132;8.518;2022-07-10T04:27:25;4.40;;;4.00;;
20725;SDS011;10524;48.132;8.518;2022-07-10T04:29:50;4.47;;;3.90;;
20725;SDS011;10524;48.132;8.518;2022-07-10T04:32:16;4.72;;;4.00;;
20725;SDS011;10524;48.132;8.518;2022-07-10T04:34:42;4.35;;;3.95;;
20725;SDS011;10524;48.132;8.518;2022-07-10T04:37:08;3.70;;;3.40;;
20725;SDS011;10524;48.132;8.518;2022-07-10T04:39:34;3.40;;;3.10;;
20725;SDS011;10524;48.132;8.518;2022-07-10T04:42:02;3.25;;;2.83;;
20725;SDS011;10524;48.132;8.518;2022-07-10T04:44:29;3.55;;;2.90;;
20725;SDS011;10524;48.132;8.518;2022-07-10T04:46:54;5.13;;;2.55;;
20725;SDS011;10524;48.132;8.518;2022-07-10T04:49:20;3.10;;;2.80;;
20725;SDS011;10524;48.132;8.518;2022-07-10T04:51:46;2.70;;;2.50;;
20725;SDS011;10524;48.132;8.518;2022-07-10T04:54:11;2.97;;;2.60;;
20725;SDS011;10524;48.132;8.518;2022-07-10T04:56:37;3.10;;;2.80;;
20725;SDS011;10524;48.132;8.518;2022-07-10T04:59:03;2.10;;;2.00;;
20725;SDS011;10524;48.132;8.518;2022-07-10T05:01:28;2.83;;;2.63;;
20725;SDS011;10524;48.132;8.518;2022-07-10T05:03:54;3.05;;;2.75;;
20725;SDS011;10524;48.132;8.518;2022-07-10T05:06:20;2.65;;;2.45;;
20725;SDS011;10524;48.132;8.518;2022-07-10T05:08:45;3.13;;;2.83;;
20725;SDS011;10524;48.132;8.518;2022-07-10T05:11:11;3.88;;;3.10;;
20725;SDS011;10524;48.132;8.518;2022-07-10T05:13:37;4.40;;;3.10;;
20725;SDS011;10524;48.132;8.518;2022-07-10T05:16:06;3.50;;;2.60;;
20725;SDS011;10524;48.132;8.518;2022-07-10T05:18:32;3.20;;;2.72;;
20725;SDS011;10524;48.132;8.518;2022-07-10T05:20:57;3.33;;;3.03;;
20725;SDS011;10524;48.132;8.518;2022-07-10T05:23:23;4.32;;;3.10;;
20725;SDS011;10524;48.132;8.518;2022-07-10T05:25:49;3.45;;;3.03;;
20725;SDS011;10524;48.132;8.518;2022-07-10T05:28:15;3.88;;;3.53;;
20725;SDS011;10524;48.132;8.518;2022-07-10T05:30:41;4.13;;;3.58;;
20725;SDS011;10524;48.132;8.518;2022-07-10T05:33:07;4.03;;;3.72;;
20725;SDS011;10524;48.132;8.518;2022-07-10T05:35:32;4.68;;;4.28;;
20725;SDS011;10524;48.132;8.518;2022-07-10T05:37:58;5.07;;;4.68;;
20725;SDS011;10524;48.132;8.518;2022-07-10T05:40:25;4.90;;;4.40;;
20725;SDS011;10524;48.132;8.518;2022-07-10T05:42:51;5.97;;;4.47;;
20725;SDS011;10524;48.132;8.518;2022-07-10T05:45:17;7.63;;;4.90;;
20725;SDS011;10524;48.132;8.518;2022-07-10T05:47:43;6.70;;;6.10;;
20725;SDS011;10524;48.132;8.518;2022-07-10T05:50:09;6.40;;;5.38;;
20725;SDS011;10524;48.132;8.518;2022-07-10T05:52:36;6.72;;;6.07;;
20725;SDS011;10524;48.132;8.518;2022-07-10T05:55:02;7.82;;;7.10;;
20725;SDS011;10524;48.132;8.518;2022-07-10T05:57:29;8.00;;;6.90;;
20725;SDS011;10524;48.132;8.518;2022-07-10T05:59:56;7.63;;;6.93;;
20725;SDS011;10524;48.132;8.518;2022-07-10T06:02:22;7.93;;;7.13;;
20725;SDS011;10524;48.132;8.518;2022-07-10T06:04:48;8.57;;;7.78;;
20725;SDS011;10524;48.132;8.518;2022-07-10T06:07:14;8.32;;;6.63;;
20725;SDS011;10524;48.132;8.518;2022-07-10T06:09:40;7.97;;;7.18;;
20725;SDS011;10524;48.132;8.518;2022-07-10T06:12:06;8.30;;;7.50;;
20725;SDS011;10524;48.132;8.518;2022-07-10T06:14:31;9.15;;;7.78;;
20725;SDS011;10524;48.132;8.518;2022-07-10T06:16:57;9.50;;;7.40;;
20725;SDS011;10524;48.132;8.518;2022-07-10T06:19:23;8.20;;;7.40;;
20725;SDS011;10524;48.132;8.518;2022-07-10T06:21:48;9.20;;;8.23;;
20725;SDS011;10524;48.132;8.518;2022-07-10T06:24:34;8.93;;;8.10;;
20725;SDS011;10524;48.132;8.518;2022-07-10T06:26:59;9.18;;;8.27;;
20725;SDS011;10524;48.132;8.518;2022-07-10T06:29:25;8.68;;;7.72;;
20725;SDS011;10524;48.132;8.518;2022-07-10T06:31:51;9.65;;;8.02;;
20725;SDS011;10524;48.132;8.518;2022-07-10T06:34:16;9.38;;;7.82;;
20725;SDS011;10524;48.132;8.518;2022-07-10T06:36:42;8.98;;;7.68;;
20725;SDS011;10524;48.132;8.518;2022-07-10T06:39:07;9.15;;;8.00;;
20725;SDS011;10524;48.132;8.518;2022-07-10T06:41:33;9.55;;;8.68;;
20725;SDS011;10524;48.132;8.518;2022-07-10T06:43:59;10.52;;;8.35;;
20725;SDS011;10524;48.132;8.518;2022-07-10T06:46:26;11.48;;;8.85;;
20725;SDS011;10524;48.132;8.518;2022-07-10T06:48:52;9.32;;;8.30;;
20725;SDS011;10524;48.132;8.518;2022-07-10T06:51:17;9.10;;;8.02;;
20725;SDS011;10524;48.132;8.518;2022-07-10T06:53:43;7.50;;;6.80;;
20725;SDS011;10524;48.132;8.518;2022-07-10T06:56:09;8.10;;;7.25;;
20725;SDS011;10524;48.132;8.518;2022-07-10T06:58:36;8.63;;;7.35;;
20725;SDS011;10524;48.132;8.518;2022-07-10T07:01:02;8.07;;;7.28;;
20725;SDS011;10524;48.132;8.518;2022-07-10T07:03:27;8.93;;;7.18;;
20725;SDS011;10524;48.132;8.518;2022-07-10T07:05:53;10.40;;;7.13;;
20725;SDS011;10524;48.132;8.518;2022-07-10T07:08:19;10.68;;;6.68;;
20725;SDS011;10524;48.132;8.518;2022-07-10T07:10:47;8.05;;;6.38;;
20725;SDS011;10524;48.132;8.518;2022-07-10T07:13:13;7.97;;;6.40;;
20725;SDS011;10524;48.132;8.518;2022-07-10T07:15:40;7.47;;;6.00;;
20725;SDS011;10524;48.132;8.518;2022-07-10T07:18:11;8.70;;;5.30;;
20725;SDS011;10524;48.132;8.518;2022-07-10T07:20:40;6.95;;;5.28;;
20725;SDS011;10524;48.132;8.518;2022-07-10T07:23:25;6.13;;;5.60;;
20725;SDS011;10524;48.132;8.518;2022-07-10T07:25:51;7.97;;;5.47;;
20725;SDS011;10524;48.132;8.518;2022-07-10T07:28:16;6.90;;;5.00;;
20725;SDS011;10524;48.132;8.518;2022-07-10T07:30:47;6.30;;;5.10;;
20725;SDS011;10524;48.132;8.518;2022-07-10T07:33:13;6.50;;;4.47;;
20725;SDS011;10524;48.132;8.518;2022-07-10T07:35:42;4.47;;;4.00;;
20725;SDS011;10524;48.132;8.518;2022-07-10T07:38:08;5.95;;;4.20;;
20725;SDS011;10524;48.132;8.518;2022-07-10T07:40:34;3.97;;;3.53;;
20725;SDS011;10524;48.132;8.518;2022-07-10T07:43:02;5.22;;;3.75;;
20725;SDS011;10524;48.132;8.518;2022-07-10T07:45:29;4.65;;;3.33;;
20725;SDS011;10524;48.132;8.518;2022-07-10T07:47:55;5.25;;;3.38;;
20725;SDS011;10524;48.132;8.518;2022-07-10T07:50:23;4.70;;;3.28;;
20725;SDS011;10524;48.132;8.518;2022-07-10T07:52:51;4.57;;;3.50;;
20725;SDS011;10524;48.132;8.518;2022-07-10T07:55:17;4.78;;;3.50;;
20725;SDS011;10524;48.132;8.518;2022-07-10T07:57:44;3.75;;;3.30;;
20725;SDS011;10524;48.132;8.518;2022-07-10T08:00:11;4.22;;;3.60;;
20725;SDS011;10524;48.132;8.518;2022-07-10T08:02:38;5.20;;;3.88;;
20725;SDS011;10524;48.132;8.518;2022-07-10T08:05:04;6.50;;;3.40;;
20725;SDS011;10524;48.132;8.518;2022-07-10T08:07:37;7.18;;;3.38;;
20725;SDS011;10524;48.132;8.518;2022-07-10T08:10:03;5.32;;;3.30;;
20725;SDS011;10524;48.132;8.518;2022-07-10T08:12:31;4.43;;;3.30;;
20725;SDS011;10524;48.132;8.518;2022-07-10T08:14:58;3.42;;;2.83;;
20725;SDS011;10524;48.132;8.518;2022-07-10T08:17:24;4.25;;;3.00;;
20725;SDS011;10524;48.132;8.518;2022-07-10T08:19:50;6.40;;;2.70;;
20725;SDS011;10524;48.132;8.518;2022-07-10T08:22:16;3.65;;;2.83;;
20725;SDS011;10524;48.132;8.518;2022-07-10T08:24:41;4.32;;;2.78;;
20725;SDS011;10524;48.132;8.518;2022-07-10T08:27:07;4.25;;;2.95;;
20725;SDS011;10524;48.132;8.518;2022-07-10T08:29:33;4.40;;;2.38;;
20725;SDS011;10524;48.132;8.518;2022-07-10T08:31:59;2.50;;;2.17;;
20725;SDS011;10524;48.132;8.518;2022-07-10T08:34:25;5.70;;;2.30;;
20725;SDS011;10524;48.132;8.518;2022-07-10T08:36:52;3.85;;;2.50;;
20725;SDS011;10524;48.132;8.518;2022-07-10T08:39:18;3.35;;;2.10;;
20725;SDS011;10524;48.132;8.518;2022-07-10T08:41:46;4.18;;;2.47;;
20725;SDS011;10524;48.132;8.518;2022-07-10T08:44:15;4.50;;;2.25;;
20725;SDS011;10524;48.132;8.518;2022-07-10T08:46:42;3.08;;;2.28;;
20725;SDS011;10524;48.132;8.518;2022-07-10T08:49:09;2.28;;;1.70;;
20725;SDS011;10524;48.132;8.518;2022-07-10T08:51:41;3.90;;;2.00;;
20725;SDS011;10524;48.132;8.518;2022-07-10T08:54:30;4.63;;;1.80;;
20725;SDS011;10524;48.132;8.518;2022-07-10T08:56:57;4.55;;;2.20;;
20725;SDS011;10524;48.132;8.518;2022-07-10T08:59:24;3.08;;;2.08;;
20725;SDS011;10524;48.132;8.518;2022-07-10T09:01:50;3.00;;;2.00;;
20725;SDS011;10524;48.132;8.518;2022-07-10T09:04:18;3.33;;;2.42;;
20725;SDS011;10524;48.132;8.518;2022-07-10T09:06:45;3.35;;;2.15;;
20725;SDS011;10524;48.132;8.518;2022-07-10T09:09:11;6.13;;;2.78;;
20725;SDS011;10524;48.132;8.518;2022-07-10T09:11:40;4.18;;;2.50;;
20725;SDS011;10524;48.132;8.518;2022-07-10T09:14:08;2.53;;;1.80;;
20725;SDS011;10524;48.132;8.518;2022-07-10T09:16:38;3.97;;;2.28;;
20725;SDS011;10524;48.132;8.518;2022-07-10T09:21:45;3.38;;;2.15;;
20725;SDS011;10524;48.132;8.518;2022-07-10T09:24:12;2.42;;;2.20;;
20725;SDS011;10524;48.132;8.518;2022-07-10T09:26:39;4.00;;;2.25;;
20725;SDS011;10524;48.132;8.518;2022-07-10T09:29:10;3.47;;;2.10;;
20725;SDS011;10524;48.132;8.518;2022-07-10T09:34:35;2.20;;;1.90;;
20725;SDS011;10524;48.132;8.518;2022-07-10T09:42:33;2.95;;;2.05;;
20725;SDS011;10524;48.132;8.518;2022-07-10T09:52:58;2.95;;;1.65;;
20725;SDS011;10524;48.132;8.518;2022-07-10T09:55:35;2.75;;;1.73;;
20725;SDS011;10524;48.132;8.518;2022-07-10T09:58:02;2.70;;;1.80;;
20725;SDS011;10524;48.132;8.518;2022-07-10T10:00:33;4.38;;;2.10;;
20725;SDS011;10524;48.132;8.518;2022-07-10T10:03:11;2.58;;;1.80;;
20725;SDS011;10524;48.132;8.518;2022-07-10T10:05:38;4.15;;;2.30;;
20725;SDS011;10524;48.132;8.518;2022-07-10T10:08:11;3.95;;;2.20;;
20725;SDS011;10524;48.132;8.518;2022-07-10T10:10:45;4.20;;;2.13;;
20725;SDS011;10524;48.132;8.518;2022-07-10T10:13:13;2.03;;;1.80;;
20725;SDS011;10524;48.132;8.518;2022-07-10T10:15:42;3.72;;;2.22;;
20725;SDS011;10524;48.132;8.518;2022-07-10T10:18:09;2.58;;;1.80;;
20725;SDS011;10524;48.132;8.518;2022-07-10T10:20:36;3.40;;;2.10;;
20725;SDS011;10524;48.132;8.518;2022-07-10T10:23:05;3.28;;;2.20;;
20725;SDS011;10524;48.132;8.518;2022-07-10T10:28:04;3.72;;;1.90;;
20725;SDS011;10524;48.132;8.518;2022-07-10T10:30:37;3.58;;;2.20;;
20725;SDS011;10524;48.132;8.518;2022-07-10T10:33:53;3.08;;;1.80;;
20725;SDS011;10524;48.132;8.518;2022-07-10T10:36:00;3.78;;;1.65;;
20725;SDS011;10524;48.132;8.518;2022-07-10T10:46:32;3.05;;;1.77;;
20725;SDS011;10524;48.132;8.518;2022-07-10T10:49:04;2.70;;;1.60;;
20725;SDS011;10524;48.132;8.518;2022-07-10T10:54:21;2.00;;;1.58;;
20725;SDS011;10524;48.132;8.518;2022-07-10T10:57:07;2.92;;;1.80;;
20725;SDS011;10524;48.132;8.518;2022-07-10T10:59:49;2.72;;;1.92;;
20725;SDS011;10524;48.132;8.518;2022-07-10T11:02:24;4.20;;;2.00;;
20725;SDS011;10524;48.132;8.518;2022-07-10T11:04:52;3.65;;;1.85;;
20725;SDS011;10524;48.132;8.518;2022-07-10T11:15:40;3.45;;;2.00;;
20725;SDS011;10524;48.132;8.518;2022-07-10T11:18:08;2.63;;;2.03;;
20725;SDS011;10524;48.132;8.518;2022-07-10T11:20:42;2.92;;;2.00;;
20725;SDS011;10524;48.132;8.518;2022-07-10T11:26:24;2.88;;;1.83;;
20725;SDS011;10524;48.132;8.518;2022-07-10T11:29:22;3.58;;;1.88;;
20725;SDS011;10524;48.132;8.518;2022-07-10T11:31:53;2.72;;;1.80;;
20725;SDS011;10524;48.132;8.518;2022-07-10T11:34:21;4.13;;;1.90;;
20725;SDS011;10524;48.132;8.518;2022-07-10T11:36:47;3.13;;;1.77;;
20725;SDS011;10524;48.132;8.518;2022-07-10T11:39:13;3.22;;;1.52;;
20725;SDS011;10524;48.132;8.518;2022-07-10T11:41:42;2.47;;;1.70;;
20725;SDS011;10524;48.132;8.518;2022-07-10T11:44:15;3.58;;;2.00;;
20725;SDS011;10524;48.132;8.518;2022-07-10T11:46:42;5.50;;;2.28;;
20725;SDS011;10524;48.132;8.518;2022-07-10T11:49:14;3.60;;;1.85;;
20725;SDS011;10524;48.132;8.518;2022-07-10T11:51:40;5.75;;;1.92;;
20725;SDS011;10524;48.132;8.518;2022-07-10T11:54:09;3.88;;;2.25;;
20725;SDS011;10524;48.132;8.518;2022-07-10T11:56:41;2.72;;;2.00;;
20725;SDS011;10524;48.132;8.518;2022-07-10T11:59:12;4.82;;;1.92;;
20725;SDS011;10524;48.132;8.518;2022-07-10T12:01:42;1.90;;;1.50;;
20725;SDS011;10524;48.132;8.518;2022-07-10T12:04:12;2.22;;;1.60;;
20725;SDS011;10524;48.132;8.518;2022-07-10T12:06:42;2.10;;;1.38;;
20725;SDS011;10524;48.132;8.518;2022-07-10T12:09:10;2.38;;;1.52;;
20725;SDS011;10524;48.132;8.518;2022-07-10T12:11:41;4.15;;;1.63;;
20725;SDS011;10524;48.132;8.518;2022-07-10T12:16:43;2.90;;;1.80;;
20725;SDS011;10524;48.132;8.518;2022-07-10T12:19:17;2.88;;;1.63;;
20725;SDS011;10524;48.132;8.518;2022-07-10T12:21:47;3.22;;;1.40;;
20725;SDS011;10524;48.132;8.518;2022-07-10T12:24:16;2.45;;;1.40;;
20725;SDS011;10524;48.132;8.518;2022-07-10T12:26:44;2.03;;;1.40;;
20725;SDS011;10524;48.132;8.518;2022-07-10T12:29:23;2.55;;;1.50;;
20725;SDS011;10524;48.132;8.518;2022-07-10T12:31:51;2.78;;;1.60;;
20725;SDS011;10524;48.132;8.518;2022-07-10T12:34:37;5.20;;;3.50;;
20725;SDS011;10524;48.132;8.518;2022-07-10T12:39:35;3.17;;;1.50;;
20725;SDS011;10524;48.132;8.518;2022-07-10T12:42:24;2.80;;;1.73;;
20725;SDS011;10524;48.132;8.518;2022-07-10T12:45:14;2.05;;;1.70;;
20725;SDS011;10524;48.132;8.518;2022-07-10T12:47:47;4.10;;;1.67;;
20725;SDS011;10524;48.132;8.518;2022-07-10T12:50:15;3.30;;;1.65;;
20725;SDS011;10524;48.132;8.518;2022-07-10T12:52:42;2.88;;;1.55;;
20725;SDS011;10524;48.132;8.518;2022-07-10T12:55:09;2.05;;;1.50;;
20725;SDS011;10524;48.132;8.518;2022-07-10T12:57:52;2.53;;;1.42;;
20725;SDS011;10524;48.132;8.518;2022-07-10T13:00:32;5.65;;;1.67;;
20725;SDS011;10524;48.132;8.518;2022-07-10T13:05:36;2.70;;;1.67;;
20725;SDS011;10524;48.132;8.518;2022-07-10T13:08:18;4.38;;;1.95;;
20725;SDS011;10524;48.132;8.518;2022-07-10T13:10:50;4.32;;;1.80;;
20725;SDS011;10524;48.132;8.518;2022-07-10T13:13:17;4.18;;;1.77;;
20725;SDS011;10524;48.132;8.518;2022-07-10T13:15:44;4.55;;;1.70;;
20725;SDS011;10524;48.132;8.518;2022-07-10T13:18:17;4.15;;;1.90;;
20725;SDS011;10524;48.132;8.518;2022-07-10T13:20:46;2.88;;;1.60;;
20725;SDS011;10524;48.132;8.518;2022-07-10T13:23:13;3.10;;;1.77;;
20725;SDS011;10524;48.132;8.518;2022-07-10T13:25:39;4.28;;;1.75;;
20725;SDS011;10524;48.132;8.518;2022-07-10T13:28:06;2.83;;;1.77;;
20725;SDS011;10524;48.132;8.518;2022-07-10T13:30:33;2.35;;;1.67;;
20725;SDS011;10524;48.132;8.518;2022-07-10T13:33:02;3.33;;;1.88;;
20725;SDS011;10524;48.132;8.518;2022-07-10T13:35:28;1.77;;;1.60;;
20725;SDS011;10524;48.132;8.518;2022-07-10T13:40:27;4.70;;;1.98;;
20725;SDS011;10524;48.132;8.518;2022-07-10T13:42:55;2.45;;;1.88;;
20725;SDS011;10524;48.132;8.518;2022-07-10T13:45:21;3.28;;;2.00;;
20725;SDS011;10524;48.132;8.518;2022-07-10T13:47:48;3.55;;;1.80;;
20725;SDS011;10524;48.132;8.518;2022-07-10T13:50:14;4.15;;;1.90;;
20725;SDS011;10524;48.132;8.518;2022-07-10T13:52:39;2.50;;;1.73;;
20725;SDS011;10524;48.132;8.518;2022-07-10T13:55:05;4.07;;;1.65;;
20725;SDS011;10524;48.132;8.518;2022-07-10T13:57:31;3.13;;;1.88;;
20725;SDS011;10524;48.132;8.518;2022-07-10T13:59:57;2.40;;;1.90;;
20725;SDS011;10524;48.132;8.518;2022-07-10T14:02:23;3.40;;;1.90;;
20725;SDS011;10524;48.132;8.518;2022-07-10T14:04:49;2.67;;;2.10;;
20725;SDS011;10524;48.132;8.518;2022-07-10T14:07:14;3.35;;;1.92;;
20725;SDS011;10524;48.132;8.518;2022-07-10T14:09:40;4.80;;;1.90;;
20725;SDS011;10524;48.132;8.518;2022-07-10T14:12:06;3.85;;;1.75;;
20725;SDS011;10524;48.132;8.518;2022-07-10T14:14:32;2.83;;;1.80;;
20725;SDS011;10524;48.132;8.518;2022-07-10T14:16:57;4.18;;;1.80;;
20725;SDS011;10524;48.132;8.518;2022-07-10T14:19:23;3.67;;;1.95;;
20725;SDS011;10524;48.132;8.518;2022-07-10T14:21:49;4.07;;;1.77;;
20725;SDS011;10524;48.132;8.518;2022-07-10T14:24:14;5.07;;;1.65;;
20725;SDS011;10524;48.132;8.518;2022-07-10T14:26:40;4.05;;;1.65;;
20725;SDS011;10524;48.132;8.518;2022-07-10T14:29:06;2.92;;;1.70;;
20725;SDS011;10524;48.132;8.518;2022-07-10T14:31:32;2.83;;;1.70;;
20725;SDS011;10524;48.132;8.518;2022-07-10T14:33:58;2.55;;;1.80;;
20725;SDS011;10524;48.132;8.518;2022-07-10T14:36:23;6.07;;;1.75;;
20725;SDS011;10524;48.132;8.518;2022-07-10T14:38:54;7.25;;;1.92;;
20725;SDS011;10524;48.132;8.518;2022-07-10T14:41:23;3.42;;;1.83;;
20725;SDS011;10524;48.132;8.518;2022-07-10T14:43:50;6.53;;;1.80;;
20725;SDS011;10524;48.132;8.518;2022-07-10T14:46:16;5.75;;;2.28;;
20725;SDS011;10524;48.132;8.518;2022-07-10T14:48:42;4.85;;;1.60;;
20725;SDS011;10524;48.132;8.518;2022-07-10T14:51:08;2.22;;;1.50;;
20725;SDS011;10524;48.132;8.518;2022-07-10T14:53:34;2.97;;;1.50;;
20725;SDS011;10524;48.132;8.518;2022-07-10T14:56:03;4.72;;;1.55;;
20725;SDS011;10524;48.132;8.518;2022-07-10T14:58:30;2.97;;;1.52;;
20725;SDS011;10524;48.132;8.518;2022-07-10T15:00:56;3.00;;;1.50;;
20725;SDS011;10524;48.132;8.518;2022-07-10T15:03:22;3.03;;;1.40;;
20725;SDS011;10524;48.132;8.518;2022-07-10T15:05:48;3.38;;;1.30;;
20725;SDS011;10524;48.132;8.518;2022-07-10T15:08:21;3.58;;;1.20;;
20725;SDS011;10524;48.132;8.518;2022-07-10T15:10:48;3.30;;;1.40;;
20725;SDS011;10524;48.132;8.518;2022-07-10T15:13:14;2.67;;;1.20;;
20725;SDS011;10524;48.132;8.518;2022-07-10T15:15:40;2.63;;;1.10;;
20725;SDS011;10524;48.132;8.518;2022-07-10T15:18:07;2.30;;;1.02;;
20725;SDS011;10524;48.132;8.518;2022-07-10T15:20:34;2.92;;;0.93;;
20725;SDS011;10524;48.132;8.518;2022-07-10T15:23:00;3.30;;;1.00;;
20725;SDS011;10524;48.132;8.518;2022-07-10T15:25:25;2.42;;;1.00;;
20725;SDS011;10524;48.132;8.518;2022-07-10T15:27:52;3.45;;;1.10;;
20725;SDS011;10524;48.132;8.518;2022-07-10T15:30:18;4.47;;;0.93;;
20725;SDS011;10524;48.132;8.518;2022-07-10T15:32:44;2.00;;;1.00;;
20725;SDS011;10524;48.132;8.518;2022-07-10T15:35:11;2.28;;;0.82;;
20725;SDS011;10524;48.132;8.518;2022-07-10T15:37:37;2.95;;;0.90;;
20725;SDS011;10524;48.132;8.518;2022-07-10T15:40:03;2.47;;;0.90;;
20725;SDS011;10524;48.132;8.518;2022-07-10T15:42:30;3.47;;;0.80;;
20725;SDS011;10524;48.132;8.518;2022-07-10T15:44:55;3.80;;;0.70;;